sensor_id;sensor_type;location;lat;lon;timestamp;temperature;humidity
6664;DHT22;58749;48.022;10.922;2022-11-30T00:01:54;5.40;99.90
6664;DHT22;58749;48.022;10.922;2022-11-30T00:04:22;5.40;99.90
6664;DHT22;58749;48.022;10.922;2022-11-30T00:06:50;5.40;99.90
6664;DHT22;58749;48.022;10.922;2022-11-30T00:09:22;5.30;99.90
6664;DHT22;58749;48.022;10.922;2022-11-30T00:11:51;5.40;99.90
6664;DHT22;58749;48.022;10.922;2022-11-30T00:14:20;5.50;99.90
6664;DHT22;58749;48.022;10.922;2022-11-30T00:16:48;5.50;99.90
6664;DHT22;58749;48.022;10.922;2022-11-30T00:19:16;5.60;99.90
6664;DHT22;58749;48.022;10.922;2022-11-30T00:21:44;5.60;99.90
6664;DHT22;58749;48.022;10.922;2022-11-30T00:24:12;5.60;99.90
6664;DHT22;58749;48.022;10.922;2022-11-30T00:26:40;5.60;99.90
6664;DHT22;58749;48.022;10.922;2022-11-30T00:29:09;5.70;99.90
6664;DHT22;58749;48.022;10.922;2022-11-30T00:31:38;5.70;99.90
6664;DHT22;58749;48.022;10.922;2022-11-30T00:34:06;5.70;99.90
6664;DHT22;58749;48.022;10.922;2022-11-30T00:36:34;5.70;99.90
6664;DHT22;58749;48.022;10.922;2022-11-30T00:39:02;5.60;99.90
6664;DHT22;58749;48.022;10.922;2022-11-30T00:41:30;5.50;99.90
6664;DHT22;58749;48.022;10.922;2022-11-30T00:43:59;5.60;99.90
6664;DHT22;58749;48.022;10.922;2022-11-30T00:46:28;5.70;99.90
6664;DHT22;58749;48.022;10.922;2022-11-30T00:48:56;5.60;99.90
6664;DHT22;58749;48.022;10.922;2022-11-30T00:51:24;5.60;99.90
6664;DHT22;58749;48.022;10.922;2022-11-30T00:53:52;5.60;99.90
6664;DHT22;58749;48.022;10.922;2022-11-30T00:56:20;5.60;99.90
6664;DHT22;58749;48.022;10.922;2022-11-30T00:58:50;5.50;99.90
6664;DHT22;58749;48.022;10.922;2022-11-30T01:01:18;5.50;99.90
6664;DHT22;58749;48.022;10.922;2022-11-30T01:03:48;5.50;99.90
6664;DHT22;58749;48.022;10.922;2022-11-30T01:06:16;5.50;99.90
6664;DHT22;58749;48.022;10.922;2022-11-30T01:08:44;5.50;99.90
6664;DHT22;58749;48.022;10.922;2022-11-30T01:11:16;5.50;99.90
6664;DHT22;58749;48.022;10.922;2022-11-30T01:13:44;5.60;99.90
6664;DHT22;58749;48.022;10.922;2022-11-30T01:16:14;5.60;99.90
6664;DHT22;58749;48.022;10.922;2022-11-30T01:18:43;5.70;99.90
6664;DHT22;58749;48.022;10.922;2022-11-30T01:21:14;5.70;99.90
6664;DHT22;58749;48.022;10.922;2022-11-30T01:23:43;5.70;99.90
6664;DHT22;58749;48.022;10.922;2022-11-30T01:26:12;5.70;99.90
6664;DHT22;58749;48.022;10.922;2022-11-30T01:28:40;5.80;99.90
6664;DHT22;58749;48.022;10.922;2022-11-30T01:31:11;5.80;99.90
6664;DHT22;58749;48.022;10.922;2022-11-30T01:33:40;5.80;99.90
6664;DHT22;58749;48.022;10.922;2022-11-30T01:36:12;5.80;99.90
6664;DHT22;58749;48.022;10.922;2022-11-30T01:38:42;5.70;99.90
6664;DHT22;58749;48.022;10.922;2022-11-30T01:41:12;5.70;99.90
6664;DHT22;58749;48.022;10.922;2022-11-30T01:43:41;5.70;99.90
6664;DHT22;58749;48.022;10.922;2022-11-30T01:46:20;5.70;99.90
6664;DHT22;58749;48.022;10.922;2022-11-30T01:48:55;5.70;99.90
6664;DHT22;58749;48.022;10.922;2022-11-30T01:51:30;5.70;99.90
6664;DHT22;58749;48.022;10.922;2022-11-30T01:53:59;5.70;99.90
6664;DHT22;58749;48.022;10.922;2022-11-30T01:56:28;5.80;99.90
6664;DHT22;58749;48.022;10.922;2022-11-30T01:58:57;5.70;99.90
6664;DHT22;58749;48.022;10.922;2022-11-30T02:01:25;5.60;99.90
6664;DHT22;58749;48.022;10.922;2022-11-30T02:03:56;5.60;99.90
6664;DHT22;58749;48.022;10.922;2022-11-30T02:06:27;5.60;99.90
6664;DHT22;58749;48.022;10.922;2022-11-30T02:08:56;5.60;99.90
6664;DHT22;58749;48.022;10.922;2022-11-30T02:11:26;5.60;99.90
6664;DHT22;58749;48.022;10.922;2022-11-30T02:14:15;5.50;99.90
6664;DHT22;58749;48.022;10.922;2022-11-30T02:16:54;5.60;99.90
6664;DHT22;58749;48.022;10.922;2022-11-30T02:19:58;5.60;99.90
6664;DHT22;58749;48.022;10.922;2022-11-30T02:22:44;5.50;99.90
6664;DHT22;58749;48.022;10.922;2022-11-30T02:25:18;5.50;99.90
6664;DHT22;58749;48.022;10.922;2022-11-30T02:27:59;5.50;99.90
6664;DHT22;58749;48.022;10.922;2022-11-30T02:30:36;5.60;99.90
6664;DHT22;58749;48.022;10.922;2022-11-30T02:33:09;5.60;99.90
6664;DHT22;58749;48.022;10.922;2022-11-30T02:35:41;5.50;99.90
6664;DHT22;58749;48.022;10.922;2022-11-30T02:38:14;5.50;99.90
6664;DHT22;58749;48.022;10.922;2022-11-30T02:40:45;5.50;99.90
6664;DHT22;58749;48.022;10.922;2022-11-30T02:43:14;5.50;99.90
6664;DHT22;58749;48.022;10.922;2022-11-30T02:45:49;5.50;99.90
6664;DHT22;58749;48.022;10.922;2022-11-30T02:48:27;5.50;99.90
6664;DHT22;58749;48.022;10.922;2022-11-30T02:50:59;5.40;99.90
6664;DHT22;58749;48.022;10.922;2022-11-30T02:53:29;5.30;99.90
6664;DHT22;58749;48.022;10.922;2022-11-30T02:55:57;5.30;99.90
6664;DHT22;58749;48.022;10.922;2022-11-30T02:58:25;5.30;99.90
6664;DHT22;58749;48.022;10.922;2022-11-30T03:00:54;5.20;99.90
6664;DHT22;58749;48.022;10.922;2022-11-30T03:03:23;5.30;99.90
6664;DHT22;58749;48.022;10.922;2022-11-30T03:05:54;5.30;99.90
6664;DHT22;58749;48.022;10.922;2022-11-30T03:08:22;5.30;99.90
6664;DHT22;58749;48.022;10.922;2022-11-30T03:10:50;5.30;99.90
6664;DHT22;58749;48.022;10.922;2022-11-30T03:13:18;5.30;99.90
6664;DHT22;58749;48.022;10.922;2022-11-30T03:15:46;5.30;99.90
6664;DHT22;58749;48.022;10.922;2022-11-30T03:18:16;5.40;99.90
6664;DHT22;58749;48.022;10.922;2022-11-30T03:20:44;5.40;99.90
6664;DHT22;58749;48.022;10.922;2022-11-30T03:23:12;5.40;99.90
6664;DHT22;58749;48.022;10.922;2022-11-30T03:25:40;5.50;99.90
6664;DHT22;58749;48.022;10.922;2022-11-30T03:28:08;5.40;99.90
6664;DHT22;58749;48.022;10.922;2022-11-30T03:30:36;5.50;99.90
6664;DHT22;58749;48.022;10.922;2022-11-30T03:33:04;5.50;99.90
6664;DHT22;58749;48.022;10.922;2022-11-30T03:35:33;5.50;99.90
6664;DHT22;58749;48.022;10.922;2022-11-30T03:38:01;5.50;99.90
6664;DHT22;58749;48.022;10.922;2022-11-30T03:40:29;5.50;99.90
6664;DHT22;58749;48.022;10.922;2022-11-30T03:42:57;5.40;99.90
6664;DHT22;58749;48.022;10.922;2022-11-30T03:45:25;5.50;99.90
6664;DHT22;58749;48.022;10.922;2022-11-30T03:47:53;5.40;99.90
6664;DHT22;58749;48.022;10.922;2022-11-30T03:50:21;5.40;99.90
6664;DHT22;58749;48.022;10.922;2022-11-30T03:52:51;5.30;99.90
6664;DHT22;58749;48.022;10.922;2022-11-30T03:55:19;5.30;99.90
6664;DHT22;58749;48.022;10.922;2022-11-30T03:57:47;5.30;99.90
6664;DHT22;58749;48.022;10.922;2022-11-30T04:00:16;5.20;99.90
6664;DHT22;58749;48.022;10.922;2022-11-30T04:02:44;5.30;99.90
6664;DHT22;58749;48.022;10.922;2022-11-30T04:05:12;5.10;99.90
6664;DHT22;58749;48.022;10.922;2022-11-30T04:07:40;5.10;99.90
6664;DHT22;58749;48.022;10.922;2022-11-30T04:10:10;4.90;99.90
6664;DHT22;58749;48.022;10.922;2022-11-30T04:12:38;4.90;99.90
6664;DHT22;58749;48.022;10.922;2022-11-30T04:15:07;5.00;99.90
6664;DHT22;58749;48.022;10.922;2022-11-30T04:17:35;4.90;99.90
6664;DHT22;58749;48.022;10.922;2022-11-30T04:20:07;4.80;99.90
6664;DHT22;58749;48.022;10.922;2022-11-30T04:22:35;4.90;99.90
6664;DHT22;58749;48.022;10.922;2022-11-30T04:25:04;4.80;99.90
6664;DHT22;58749;48.022;10.922;2022-11-30T04:27:33;4.80;99.90
6664;DHT22;58749;48.022;10.922;2022-11-30T04:30:01;4.80;99.90
6664;DHT22;58749;48.022;10.922;2022-11-30T04:32:29;4.80;99.90
6664;DHT22;58749;48.022;10.922;2022-11-30T04:34:57;4.90;99.90
6664;DHT22;58749;48.022;10.922;2022-11-30T04:37:25;5.00;99.90
6664;DHT22;58749;48.022;10.922;2022-11-30T04:39:53;5.00;99.90
6664;DHT22;58749;48.022;10.922;2022-11-30T04:42:21;5.10;99.90
6664;DHT22;58749;48.022;10.922;2022-11-30T04:44:51;5.00;99.90
6664;DHT22;58749;48.022;10.922;2022-11-30T04:47:19;5.00;99.90
6664;DHT22;58749;48.022;10.922;2022-11-30T04:49:47;5.00;99.90
6664;DHT22;58749;48.022;10.922;2022-11-30T04:52:15;5.00;99.90
6664;DHT22;58749;48.022;10.922;2022-11-30T04:54:43;4.90;99.90
6664;DHT22;58749;48.022;10.922;2022-11-30T04:57:11;4.90;99.90
6664;DHT22;58749;48.022;10.922;2022-11-30T04:59:39;5.00;99.90
6664;DHT22;58749;48.022;10.922;2022-11-30T05:02:09;5.00;99.90
6664;DHT22;58749;48.022;10.922;2022-11-30T05:04:37;5.00;99.90
6664;DHT22;58749;48.022;10.922;2022-11-30T05:07:05;4.90;99.90
6664;DHT22;58749;48.022;10.922;2022-11-30T05:09:33;4.80;99.90
6664;DHT22;58749;48.022;10.922;2022-11-30T05:12:01;4.80;99.90
6664;DHT22;58749;48.022;10.922;2022-11-30T05:14:29;4.90;99.90
6664;DHT22;58749;48.022;10.922;2022-11-30T05:16:57;4.80;99.90
6664;DHT22;58749;48.022;10.922;2022-11-30T05:19:27;4.70;99.90
6664;DHT22;58749;48.022;10.922;2022-11-30T05:21:55;4.70;99.90
6664;DHT22;58749;48.022;10.922;2022-11-30T05:24:23;4.70;99.90
6664;DHT22;58749;48.022;10.922;2022-11-30T05:26:51;4.60;99.90
6664;DHT22;58749;48.022;10.922;2022-11-30T05:29:19;4.70;99.90
6664;DHT22;58749;48.022;10.922;2022-11-30T05:31:47;4.70;99.90
6664;DHT22;58749;48.022;10.922;2022-11-30T05:34:16;4.70;99.90
6664;DHT22;58749;48.022;10.922;2022-11-30T05:36:45;4.60;99.90
6664;DHT22;58749;48.022;10.922;2022-11-30T05:39:13;4.50;99.90
6664;DHT22;58749;48.022;10.922;2022-11-30T05:41:42;4.40;99.90
6664;DHT22;58749;48.022;10.922;2022-11-30T05:44:10;4.30;99.90
6664;DHT22;58749;48.022;10.922;2022-11-30T05:46:38;4.40;99.90
6664;DHT22;58749;48.022;10.922;2022-11-30T05:49:07;4.40;99.90
6664;DHT22;58749;48.022;10.922;2022-11-30T05:51:35;4.40;99.90
6664;DHT22;58749;48.022;10.922;2022-11-30T05:54:04;4.50;99.90
6664;DHT22;58749;48.022;10.922;2022-11-30T05:56:32;4.50;99.90
6664;DHT22;58749;48.022;10.922;2022-11-30T05:59:00;4.60;99.90
6664;DHT22;58749;48.022;10.922;2022-11-30T06:01:28;4.40;99.90
6664;DHT22;58749;48.022;10.922;2022-11-30T06:03:56;4.40;99.90
6664;DHT22;58749;48.022;10.922;2022-11-30T06:06:24;4.30;99.90
6664;DHT22;58749;48.022;10.922;2022-11-30T06:08:53;4.30;99.90
6664;DHT22;58749;48.022;10.922;2022-11-30T06:11:22;4.30;99.90
6664;DHT22;58749;48.022;10.922;2022-11-30T06:13:50;4.30;99.90
6664;DHT22;58749;48.022;10.922;2022-11-30T06:16:18;4.40;99.90
6664;DHT22;58749;48.022;10.922;2022-11-30T06:18:46;4.40;99.90
6664;DHT22;58749;48.022;10.922;2022-11-30T06:21:14;4.50;99.90
6664;DHT22;58749;48.022;10.922;2022-11-30T06:23:50;4.50;99.90
6664;DHT22;58749;48.022;10.922;2022-11-30T06:26:18;4.40;99.90
6664;DHT22;58749;48.022;10.922;2022-11-30T06:28:47;4.50;99.90
6664;DHT22;58749;48.022;10.922;2022-11-30T06:31:15;4.50;99.90
6664;DHT22;58749;48.022;10.922;2022-11-30T06:33:43;4.50;99.90
6664;DHT22;58749;48.022;10.922;2022-11-30T06:36:11;4.30;99.90
6664;DHT22;58749;48.022;10.922;2022-11-30T06:38:39;4.20;99.90
6664;DHT22;58749;48.022;10.922;2022-11-30T06:41:08;4.10;99.90
6664;DHT22;58749;48.022;10.922;2022-11-30T06:43:38;4.20;99.90
6664;DHT22;58749;48.022;10.922;2022-11-30T06:46:08;4.20;99.90
6664;DHT22;58749;48.022;10.922;2022-11-30T06:48:37;4.20;99.90
6664;DHT22;58749;48.022;10.922;2022-11-30T06:51:06;4.00;99.90
6664;DHT22;58749;48.022;10.922;2022-11-30T06:53:34;4.00;99.90
6664;DHT22;58749;48.022;10.922;2022-11-30T06:56:04;4.10;99.90
6664;DHT22;58749;48.022;10.922;2022-11-30T06:58:37;4.20;99.90
6664;DHT22;58749;48.022;10.922;2022-11-30T07:01:05;4.30;99.90
6664;DHT22;58749;48.022;10.922;2022-11-30T07:03:36;4.50;99.90
6664;DHT22;58749;48.022;10.922;2022-11-30T07:06:06;4.50;99.90
6664;DHT22;58749;48.022;10.922;2022-11-30T07:08:35;4.40;99.90
6664;DHT22;58749;48.022;10.922;2022-11-30T07:11:03;4.40;99.90
6664;DHT22;58749;48.022;10.922;2022-11-30T07:13:32;4.30;99.90
6664;DHT22;58749;48.022;10.922;2022-11-30T07:16:02;4.40;99.90
6664;DHT22;58749;48.022;10.922;2022-11-30T07:18:31;4.40;99.90
6664;DHT22;58749;48.022;10.922;2022-11-30T07:21:01;4.50;99.90
6664;DHT22;58749;48.022;10.922;2022-11-30T07:23:29;4.40;99.90
6664;DHT22;58749;48.022;10.922;2022-11-30T07:26:22;4.50;99.90
6664;DHT22;58749;48.022;10.922;2022-11-30T07:28:51;4.60;99.90
6664;DHT22;58749;48.022;10.922;2022-11-30T07:31:22;4.60;99.90
6664;DHT22;58749;48.022;10.922;2022-11-30T07:33:51;4.60;99.90
6664;DHT22;58749;48.022;10.922;2022-11-30T07:36:22;4.60;99.90
6664;DHT22;58749;48.022;10.922;2022-11-30T07:38:51;4.70;99.90
6664;DHT22;58749;48.022;10.922;2022-11-30T07:41:22;4.70;99.90
6664;DHT22;58749;48.022;10.922;2022-11-30T07:43:50;4.70;99.90
6664;DHT22;58749;48.022;10.922;2022-11-30T07:46:18;4.70;99.90
6664;DHT22;58749;48.022;10.922;2022-11-30T07:48:46;4.60;99.90
6664;DHT22;58749;48.022;10.922;2022-11-30T07:51:16;4.60;99.90
6664;DHT22;58749;48.022;10.922;2022-11-30T07:53:46;4.70;99.90
6664;DHT22;58749;48.022;10.922;2022-11-30T07:56:16;4.50;99.90
6664;DHT22;58749;48.022;10.922;2022-11-30T07:58:45;4.60;99.90
6664;DHT22;58749;48.022;10.922;2022-11-30T08:01:15;4.60;99.90
6664;DHT22;58749;48.022;10.922;2022-11-30T08:03:44;4.60;99.90
6664;DHT22;58749;48.022;10.922;2022-11-30T08:06:13;4.60;99.90
6664;DHT22;58749;48.022;10.922;2022-11-30T08:08:43;4.60;99.90
6664;DHT22;58749;48.022;10.922;2022-11-30T08:11:14;4.60;99.90
6664;DHT22;58749;48.022;10.922;2022-11-30T08:13:43;4.70;99.90
6664;DHT22;58749;48.022;10.922;2022-11-30T08:16:12;4.80;99.90
6664;DHT22;58749;48.022;10.922;2022-11-30T08:18:41;4.90;99.90
6664;DHT22;58749;48.022;10.922;2022-11-30T08:21:11;5.00;99.90
6664;DHT22;58749;48.022;10.922;2022-11-30T08:23:40;5.00;99.90
6664;DHT22;58749;48.022;10.922;2022-11-30T08:26:12;5.00;99.90
6664;DHT22;58749;48.022;10.922;2022-11-30T08:28:42;5.00;99.90
6664;DHT22;58749;48.022;10.922;2022-11-30T08:31:12;4.90;99.90
6664;DHT22;58749;48.022;10.922;2022-11-30T08:33:41;5.00;99.90
6664;DHT22;58749;48.022;10.922;2022-11-30T08:36:11;4.90;99.90
6664;DHT22;58749;48.022;10.922;2022-11-30T08:38:41;4.90;99.90
6664;DHT22;58749;48.022;10.922;2022-11-30T08:41:10;4.90;99.90
6664;DHT22;58749;48.022;10.922;2022-11-30T08:43:40;4.90;99.90
6664;DHT22;58749;48.022;10.922;2022-11-30T08:46:10;4.80;99.90
6664;DHT22;58749;48.022;10.922;2022-11-30T08:48:59;4.80;99.90
6664;DHT22;58749;48.022;10.922;2022-11-30T08:51:46;4.80;99.90
6664;DHT22;58749;48.022;10.922;2022-11-30T08:54:34;5.00;99.90
6664;DHT22;58749;48.022;10.922;2022-11-30T08:57:04;5.10;99.90
6664;DHT22;58749;48.022;10.922;2022-11-30T08:59:34;5.10;99.90
6664;DHT22;58749;48.022;10.922;2022-11-30T09:02:02;5.10;99.90
6664;DHT22;58749;48.022;10.922;2022-11-30T09:04:30;5.10;99.90
6664;DHT22;58749;48.022;10.922;2022-11-30T09:06:58;5.10;99.90
6664;DHT22;58749;48.022;10.922;2022-11-30T09:09:26;5.20;99.90
6664;DHT22;58749;48.022;10.922;2022-11-30T09:11:54;5.20;99.90
6664;DHT22;58749;48.022;10.922;2022-11-30T09:14:22;5.20;99.90
6664;DHT22;58749;48.022;10.922;2022-11-30T09:16:53;5.20;99.90
6664;DHT22;58749;48.022;10.922;2022-11-30T09:19:21;5.20;99.90
6664;DHT22;58749;48.022;10.922;2022-11-30T09:21:49;5.20;99.90
6664;DHT22;58749;48.022;10.922;2022-11-30T09:24:18;5.10;99.90
6664;DHT22;58749;48.022;10.922;2022-11-30T09:26:47;5.10;99.90
6664;DHT22;58749;48.022;10.922;2022-11-30T09:29:15;5.10;99.90
6664;DHT22;58749;48.022;10.922;2022-11-30T09:31:43;5.00;99.90
6664;DHT22;58749;48.022;10.922;2022-11-30T09:34:12;5.10;99.90
6664;DHT22;58749;48.022;10.922;2022-11-30T09:36:40;5.00;99.90
6664;DHT22;58749;48.022;10.922;2022-11-30T09:39:09;4.80;99.90
6664;DHT22;58749;48.022;10.922;2022-11-30T09:42:12;4.80;99.90
6664;DHT22;58749;48.022;10.922;2022-11-30T09:44:50;4.80;99.90
6664;DHT22;58749;48.022;10.922;2022-11-30T09:47:33;4.90;99.90
6664;DHT22;58749;48.022;10.922;2022-11-30T09:50:12;4.80;99.90
6664;DHT22;58749;48.022;10.922;2022-11-30T09:52:42;4.80;99.90
6664;DHT22;58749;48.022;10.922;2022-11-30T09:55:14;4.80;99.90
6664;DHT22;58749;48.022;10.922;2022-11-30T09:57:44;4.80;99.90
6664;DHT22;58749;48.022;10.922;2022-11-30T10:00:16;4.80;99.90
6664;DHT22;58749;48.022;10.922;2022-11-30T10:02:44;4.70;99.90
6664;DHT22;58749;48.022;10.922;2022-11-30T10:05:15;4.70;99.90
6664;DHT22;58749;48.022;10.922;2022-11-30T10:07:59;4.80;99.90
6664;DHT22;58749;48.022;10.922;2022-11-30T10:10:36;4.70;99.90
6664;DHT22;58749;48.022;10.922;2022-11-30T10:13:21;4.60;99.90
6664;DHT22;58749;48.022;10.922;2022-11-30T10:16:03;4.60;99.90
6664;DHT22;58749;48.022;10.922;2022-11-30T10:18:43;4.60;99.90
6664;DHT22;58749;48.022;10.922;2022-11-30T10:21:26;4.60;99.90
6664;DHT22;58749;48.022;10.922;2022-11-30T10:24:12;4.60;99.90
6664;DHT22;58749;48.022;10.922;2022-11-30T10:26:47;4.70;99.90
6664;DHT22;58749;48.022;10.922;2022-11-30T10:29:23;4.60;99.90
6664;DHT22;58749;48.022;10.922;2022-11-30T10:31:57;4.50;99.90
6664;DHT22;58749;48.022;10.922;2022-11-30T10:34:30;4.50;99.90
6664;DHT22;58749;48.022;10.922;2022-11-30T10:37:04;4.50;99.90
6664;DHT22;58749;48.022;10.922;2022-11-30T10:39:41;4.60;99.90
6664;DHT22;58749;48.022;10.922;2022-11-30T10:42:13;4.60;99.90
6664;DHT22;58749;48.022;10.922;2022-11-30T10:44:47;4.60;99.90
6664;DHT22;58749;48.022;10.922;2022-11-30T10:47:22;4.70;99.90
6664;DHT22;58749;48.022;10.922;2022-11-30T10:49:52;4.60;99.90
6664;DHT22;58749;48.022;10.922;2022-11-30T10:52:24;4.50;99.90
6664;DHT22;58749;48.022;10.922;2022-11-30T10:54:53;4.40;99.90
6664;DHT22;58749;48.022;10.922;2022-11-30T10:57:30;4.50;99.90
6664;DHT22;58749;48.022;10.922;2022-11-30T11:00:03;4.60;99.90
6664;DHT22;58749;48.022;10.922;2022-11-30T11:02:38;4.70;99.90
6664;DHT22;58749;48.022;10.922;2022-11-30T11:05:12;4.80;99.90
6664;DHT22;58749;48.022;10.922;2022-11-30T11:07:48;4.90;99.90
6664;DHT22;58749;48.022;10.922;2022-11-30T11:10:18;4.80;99.90
6664;DHT22;58749;48.022;10.922;2022-11-30T11:12:49;4.90;99.90
6664;DHT22;58749;48.022;10.922;2022-11-30T11:15:20;4.90;99.90
6664;DHT22;58749;48.022;10.922;2022-11-30T11:17:49;4.90;99.90
6664;DHT22;58749;48.022;10.922;2022-11-30T11:20:33;4.90;99.90
6664;DHT22;58749;48.022;10.922;2022-11-30T11:23:03;4.90;99.90
6664;DHT22;58749;48.022;10.922;2022-11-30T11:25:33;4.80;99.90
6664;DHT22;58749;48.022;10.922;2022-11-30T11:28:05;4.80;99.90
6664;DHT22;58749;48.022;10.922;2022-11-30T11:30:35;4.70;99.90
6664;DHT22;58749;48.022;10.922;2022-11-30T11:33:18;4.70;99.90
6664;DHT22;58749;48.022;10.922;2022-11-30T11:35:47;4.80;99.90
6664;DHT22;58749;48.022;10.922;2022-11-30T11:38:23;4.70;99.90
6664;DHT22;58749;48.022;10.922;2022-11-30T11:40:55;4.70;99.90
6664;DHT22;58749;48.022;10.922;2022-11-30T11:43:25;4.70;99.90
6664;DHT22;58749;48.022;10.922;2022-11-30T11:45:57;4.60;99.90
6664;DHT22;58749;48.022;10.922;2022-11-30T11:48:32;4.60;99.90
6664;DHT22;58749;48.022;10.922;2022-11-30T11:51:03;4.70;99.90
6664;DHT22;58749;48.022;10.922;2022-11-30T11:53:39;4.60;99.90
6664;DHT22;58749;48.022;10.922;2022-11-30T11:56:22;4.60;99.90
6664;DHT22;58749;48.022;10.922;2022-11-30T11:58:55;4.70;99.90
6664;DHT22;58749;48.022;10.922;2022-11-30T12:01:45;4.70;99.90
6664;DHT22;58749;48.022;10.922;2022-11-30T12:04:25;4.70;99.90
6664;DHT22;58749;48.022;10.922;2022-11-30T12:07:01;4.70;99.90
6664;DHT22;58749;48.022;10.922;2022-11-30T12:09:38;4.70;99.90
6664;DHT22;58749;48.022;10.922;2022-11-30T12:12:11;4.70;99.90
6664;DHT22;58749;48.022;10.922;2022-11-30T12:14:39;4.70;99.90
6664;DHT22;58749;48.022;10.922;2022-11-30T12:17:18;4.60;99.90
6664;DHT22;58749;48.022;10.922;2022-11-30T12:19:56;4.60;99.90
6664;DHT22;58749;48.022;10.922;2022-11-30T12:22:46;4.60;99.90
6664;DHT22;58749;48.022;10.922;2022-11-30T12:25:23;4.60;99.90
6664;DHT22;58749;48.022;10.922;2022-11-30T12:28:00;4.60;99.90
6664;DHT22;58749;48.022;10.922;2022-11-30T12:30:41;4.70;99.90
6664;DHT22;58749;48.022;10.922;2022-11-30T12:33:23;4.80;99.90
6664;DHT22;58749;48.022;10.922;2022-11-30T12:35:59;4.70;99.90
6664;DHT22;58749;48.022;10.922;2022-11-30T12:38:38;4.60;99.90
6664;DHT22;58749;48.022;10.922;2022-11-30T12:41:21;4.40;99.90
6664;DHT22;58749;48.022;10.922;2022-11-30T12:43:57;4.40;99.90
6664;DHT22;58749;48.022;10.922;2022-11-30T12:46:33;4.40;99.90
6664;DHT22;58749;48.022;10.922;2022-11-30T12:49:22;4.40;99.90
6664;DHT22;58749;48.022;10.922;2022-11-30T12:51:57;4.60;99.90
6664;DHT22;58749;48.022;10.922;2022-11-30T12:54:33;4.40;99.90
6664;DHT22;58749;48.022;10.922;2022-11-30T12:57:12;4.20;99.90
6664;DHT22;58749;48.022;10.922;2022-11-30T12:59:48;4.20;99.90
6664;DHT22;58749;48.022;10.922;2022-11-30T13:05:20;4.30;99.90
6664;DHT22;58749;48.022;10.922;2022-11-30T13:07:51;4.30;99.90
6664;DHT22;58749;48.022;10.922;2022-11-30T13:10:24;4.40;99.90
6664;DHT22;58749;48.022;10.922;2022-11-30T13:12:55;4.50;99.90
6664;DHT22;58749;48.022;10.922;2022-11-30T13:15:26;4.30;99.90
6664;DHT22;58749;48.022;10.922;2022-11-30T13:17:55;4.30;99.90
6664;DHT22;58749;48.022;10.922;2022-11-30T13:20:27;4.20;99.90
6664;DHT22;58749;48.022;10.922;2022-11-30T13:23:07;4.10;99.90
6664;DHT22;58749;48.022;10.922;2022-11-30T13:25:43;4.20;99.90
6664;DHT22;58749;48.022;10.922;2022-11-30T13:28:52;4.10;99.90
6664;DHT22;58749;48.022;10.922;2022-11-30T13:31:23;4.10;99.90
6664;DHT22;58749;48.022;10.922;2022-11-30T13:33:57;4.10;99.90
6664;DHT22;58749;48.022;10.922;2022-11-30T13:36:34;4.00;99.90
6664;DHT22;58749;48.022;10.922;2022-11-30T13:39:19;4.00;99.90
6664;DHT22;58749;48.022;10.922;2022-11-30T13:42:28;4.00;99.90
6664;DHT22;58749;48.022;10.922;2022-11-30T13:45:15;4.20;99.90
6664;DHT22;58749;48.022;10.922;2022-11-30T13:47:47;4.10;99.90
6664;DHT22;58749;48.022;10.922;2022-11-30T13:50:22;3.90;99.90
6664;DHT22;58749;48.022;10.922;2022-11-30T13:56:05;3.90;99.90
6664;DHT22;58749;48.022;10.922;2022-11-30T13:58:34;4.10;99.90
6664;DHT22;58749;48.022;10.922;2022-11-30T14:01:23;4.00;99.90
6664;DHT22;58749;48.022;10.922;2022-11-30T14:04:31;4.10;99.90
6664;DHT22;58749;48.022;10.922;2022-11-30T14:06:59;4.10;99.90
6664;DHT22;58749;48.022;10.922;2022-11-30T14:09:54;4.20;99.90
6664;DHT22;58749;48.022;10.922;2022-11-30T14:12:56;4.20;99.90
6664;DHT22;58749;48.022;10.922;2022-11-30T14:18:18;4.10;99.90
6664;DHT22;58749;48.022;10.922;2022-11-30T14:20:50;4.10;99.90
6664;DHT22;58749;48.022;10.922;2022-11-30T14:23:23;4.10;99.90
6664;DHT22;58749;48.022;10.922;2022-11-30T14:25:54;4.20;99.90
6664;DHT22;58749;48.022;10.922;2022-11-30T14:28:32;4.10;99.90
6664;DHT22;58749;48.022;10.922;2022-11-30T14:31:04;4.20;99.90
6664;DHT22;58749;48.022;10.922;2022-11-30T14:33:41;4.20;99.90
6664;DHT22;58749;48.022;10.922;2022-11-30T14:36:10;4.10;99.90
6664;DHT22;58749;48.022;10.922;2022-11-30T14:38:40;4.00;99.90
6664;DHT22;58749;48.022;10.922;2022-11-30T14:41:24;3.90;99.90
6664;DHT22;58749;48.022;10.922;2022-11-30T14:44:02;4.00;99.90
6664;DHT22;58749;48.022;10.922;2022-11-30T14:46:31;4.00;99.90
6664;DHT22;58749;48.022;10.922;2022-11-30T14:49:20;4.00;99.90
6664;DHT22;58749;48.022;10.922;2022-11-30T14:51:51;3.90;99.90
6664;DHT22;58749;48.022;10.922;2022-11-30T14:54:45;3.90;99.90
6664;DHT22;58749;48.022;10.922;2022-11-30T14:57:23;3.90;99.90
6664;DHT22;58749;48.022;10.922;2022-11-30T14:59:54;3.80;99.90
6664;DHT22;58749;48.022;10.922;2022-11-30T15:02:28;3.80;99.90
6664;DHT22;58749;48.022;10.922;2022-11-30T15:04:59;3.80;99.90
6664;DHT22;58749;48.022;10.922;2022-11-30T15:07:27;3.70;99.90
6664;DHT22;58749;48.022;10.922;2022-11-30T15:10:02;3.70;99.90
6664;DHT22;58749;48.022;10.922;2022-11-30T15:12:31;3.70;99.90
6664;DHT22;58749;48.022;10.922;2022-11-30T15:15:05;3.60;99.90
6664;DHT22;58749;48.022;10.922;2022-11-30T15:17:49;3.60;99.90
6664;DHT22;58749;48.022;10.922;2022-11-30T15:20:24;3.40;99.90
6664;DHT22;58749;48.022;10.922;2022-11-30T15:22:54;3.70;99.90
6664;DHT22;58749;48.022;10.922;2022-11-30T15:25:27;3.70;99.90
6664;DHT22;58749;48.022;10.922;2022-11-30T15:27:57;3.70;99.90
6664;DHT22;58749;48.022;10.922;2022-11-30T15:30:26;3.60;99.90
6664;DHT22;58749;48.022;10.922;2022-11-30T15:32:55;3.50;99.90
6664;DHT22;58749;48.022;10.922;2022-11-30T15:35:26;3.60;99.90
6664;DHT22;58749;48.022;10.922;2022-11-30T15:38:17;3.70;99.90
6664;DHT22;58749;48.022;10.922;2022-11-30T15:40:47;3.70;99.90
6664;DHT22;58749;48.022;10.922;2022-11-30T15:43:22;3.70;99.90
6664;DHT22;58749;48.022;10.922;2022-11-30T15:45:54;3.60;99.90
6664;DHT22;58749;48.022;10.922;2022-11-30T15:48:28;3.60;99.90
6664;DHT22;58749;48.022;10.922;2022-11-30T15:50:58;3.70;99.90
6664;DHT22;58749;48.022;10.922;2022-11-30T15:53:30;3.80;99.90
6664;DHT22;58749;48.022;10.922;2022-11-30T15:56:03;4.10;99.90
6664;DHT22;58749;48.022;10.922;2022-11-30T15:58:35;4.20;99.90
6664;DHT22;58749;48.022;10.922;2022-11-30T16:01:11;4.30;99.90
6664;DHT22;58749;48.022;10.922;2022-11-30T16:04:03;4.60;99.90
6664;DHT22;58749;48.022;10.922;2022-11-30T16:06:35;4.60;99.90
6664;DHT22;58749;48.022;10.922;2022-11-30T16:09:15;4.50;99.90
6664;DHT22;58749;48.022;10.922;2022-11-30T16:11:45;4.60;99.90
6664;DHT22;58749;48.022;10.922;2022-11-30T16:14:14;4.70;99.90
6664;DHT22;58749;48.022;10.922;2022-11-30T16:16:44;4.80;99.90
6664;DHT22;58749;48.022;10.922;2022-11-30T16:19:12;4.90;99.90
6664;DHT22;58749;48.022;10.922;2022-11-30T16:21:42;4.90;99.90
6664;DHT22;58749;48.022;10.922;2022-11-30T16:24:13;5.00;99.90
6664;DHT22;58749;48.022;10.922;2022-11-30T16:26:41;5.00;99.90